sensor_id;sensor_type;location;lat;lon;timestamp;P1;durP1;ratioP1;P2;durP2;ratioP2
21330;SDS011;10824;51.632;4.950;2022-08-21T00:00:20;2.08;;;1.40;;
21330;SDS011;10824;51.632;4.950;2022-08-21T00:02:54;3.22;;;1.50;;
21330;SDS011;10824;51.632;4.950;2022-08-21T00:05:28;3.05;;;1.30;;
21330;SDS011;10824;51.632;4.950;2022-08-21T00:07:56;2.60;;;1.17;;
21330;SDS011;10824;51.632;4.950;2022-08-21T00:10:23;2.00;;;1.17;;
21330;SDS011;10824;51.632;4.950;2022-08-21T00:12:51;2.97;;;1.42;;
21330;SDS011;10824;51.632;4.950;2022-08-21T00:15:21;3.00;;;1.27;;
21330;SDS011;10824;51.632;4.950;2022-08-21T00:17:53;4.25;;;1.40;;
21330;SDS011;10824;51.632;4.950;2022-08-21T00:20:20;5.85;;;1.45;;
21330;SDS011;10824;51.632;4.950;2022-08-21T00:22:48;4.05;;;1.67;;
21330;SDS011;10824;51.632;4.950;2022-08-21T00:25:16;2.58;;;1.23;;
21330;SDS011;10824;51.632;4.950;2022-08-21T00:27:49;2.97;;;1.55;;
21330;SDS011;10824;51.632;4.950;2022-08-21T00:30:17;3.30;;;1.48;;
21330;SDS011;10824;51.632;4.950;2022-08-21T00:32:48;4.05;;;1.83;;
21330;SDS011;10824;51.632;4.950;2022-08-21T00:35:18;4.38;;;1.50;;
21330;SDS011;10824;51.632;4.950;2022-08-21T00:37:47;7.40;;;1.70;;
21330;SDS011;10824;51.632;4.950;2022-08-21T00:40:27;3.17;;;1.42;;
21330;SDS011;10824;51.632;4.950;2022-08-21T00:43:00;6.80;;;1.52;;
21330;SDS011;10824;51.632;4.950;2022-08-21T00:45:32;3.25;;;1.27;;
21330;SDS011;10824;51.632;4.950;2022-08-21T00:48:00;2.55;;;1.67;;
21330;SDS011;10824;51.632;4.950;2022-08-21T00:50:29;4.22;;;1.70;;
21330;SDS011;10824;51.632;4.950;2022-08-21T00:53:00;3.95;;;1.88;;
21330;SDS011;10824;51.632;4.950;2022-08-21T00:55:28;3.25;;;1.63;;
21330;SDS011;10824;51.632;4.950;2022-08-21T00:57:58;4.82;;;1.80;;
21330;SDS011;10824;51.632;4.950;2022-08-21T01:00:30;6.20;;;2.00;;
21330;SDS011;10824;51.632;4.950;2022-08-21T01:03:00;2.80;;;1.80;;
21330;SDS011;10824;51.632;4.950;2022-08-21T01:05:34;5.15;;;1.70;;
21330;SDS011;10824;51.632;4.950;2022-08-21T01:08:02;7.22;;;1.95;;
21330;SDS011;10824;51.632;4.950;2022-08-21T01:10:30;4.82;;;2.05;;
21330;SDS011;10824;51.632;4.950;2022-08-21T01:12:57;8.68;;;2.78;;
21330;SDS011;10824;51.632;4.950;2022-08-21T01:15:26;4.53;;;1.92;;
21330;SDS011;10824;51.632;4.950;2022-08-21T01:17:58;2.22;;;1.42;;
21330;SDS011;10824;51.632;4.950;2022-08-21T01:20:26;3.45;;;1.60;;
21330;SDS011;10824;51.632;4.950;2022-08-21T01:22:58;7.40;;;2.10;;
21330;SDS011;10824;51.632;4.950;2022-08-21T01:25:27;5.03;;;2.33;;
21330;SDS011;10824;51.632;4.950;2022-08-21T01:27:54;2.58;;;1.70;;
21330;SDS011;10824;51.632;4.950;2022-08-21T01:30:23;2.42;;;1.63;;
21330;SDS011;10824;51.632;4.950;2022-08-21T01:32:52;6.18;;;1.98;;
21330;SDS011;10824;51.632;4.950;2022-08-21T01:35:21;8.32;;;2.08;;
21330;SDS011;10824;51.632;4.950;2022-08-21T01:37:49;4.78;;;1.88;;
21330;SDS011;10824;51.632;4.950;2022-08-21T01:40:16;4.10;;;2.10;;
21330;SDS011;10824;51.632;4.950;2022-08-21T01:42:44;4.05;;;1.60;;
21330;SDS011;10824;51.632;4.950;2022-08-21T01:45:12;6.63;;;2.13;;
21330;SDS011;10824;51.632;4.950;2022-08-21T01:47:40;4.18;;;1.98;;
21330;SDS011;10824;51.632;4.950;2022-08-21T01:50:09;5.75;;;2.88;;
21330;SDS011;10824;51.632;4.950;2022-08-21T01:52:37;4.05;;;2.17;;
21330;SDS011;10824;51.632;4.950;2022-08-21T01:55:05;6.55;;;2.15;;
21330;SDS011;10824;51.632;4.950;2022-08-21T01:57:34;5.28;;;2.15;;
21330;SDS011;10824;51.632;4.950;2022-08-21T02:00:04;5.38;;;1.75;;
21330;SDS011;10824;51.632;4.950;2022-08-21T02:02:37;4.22;;;2.22;;
21330;SDS011;10824;51.632;4.950;2022-08-21T02:05:05;4.72;;;1.83;;
21330;SDS011;10824;51.632;4.950;2022-08-21T02:07:40;7.78;;;2.72;;
21330;SDS011;10824;51.632;4.950;2022-08-21T02:10:14;3.25;;;1.70;;
21330;SDS011;10824;51.632;4.950;2022-08-21T02:12:44;3.65;;;1.80;;
21330;SDS011;10824;51.632;4.950;2022-08-21T02:15:11;5.88;;;2.35;;
21330;SDS011;10824;51.632;4.950;2022-08-21T02:17:39;4.50;;;2.63;;
21330;SDS011;10824;51.632;4.950;2022-08-21T02:20:08;5.13;;;2.58;;
21330;SDS011;10824;51.632;4.950;2022-08-21T02:22:36;5.55;;;2.55;;
21330;SDS011;10824;51.632;4.950;2022-08-21T02:25:04;3.22;;;1.85;;
21330;SDS011;10824;51.632;4.950;2022-08-21T02:27:36;3.20;;;1.80;;
21330;SDS011;10824;51.632;4.950;2022-08-21T02:30:12;2.25;;;1.73;;
21330;SDS011;10824;51.632;4.950;2022-08-21T02:32:42;5.93;;;2.08;;
21330;SDS011;10824;51.632;4.950;2022-08-21T02:35:10;8.85;;;2.92;;
21330;SDS011;10824;51.632;4.950;2022-08-21T02:40:19;3.50;;;2.10;;
21330;SDS011;10824;51.632;4.950;2022-08-21T02:42:48;3.45;;;1.83;;
21330;SDS011;10824;51.632;4.950;2022-08-21T02:45:15;4.40;;;2.10;;
21330;SDS011;10824;51.632;4.950;2022-08-21T02:47:54;5.40;;;2.15;;
21330;SDS011;10824;51.632;4.950;2022-08-21T02:50:25;3.25;;;2.22;;
21330;SDS011;10824;51.632;4.950;2022-08-21T02:52:58;5.25;;;2.58;;
21330;SDS011;10824;51.632;4.950;2022-08-21T02:55:27;9.38;;;2.40;;
21330;SDS011;10824;51.632;4.950;2022-08-21T02:57:56;7.05;;;2.03;;
21330;SDS011;10824;51.632;4.950;2022-08-21T03:00:24;2.95;;;1.92;;
21330;SDS011;10824;51.632;4.950;2022-08-21T03:02:53;8.15;;;2.50;;
21330;SDS011;10824;51.632;4.950;2022-08-21T03:05:22;9.10;;;3.63;;
21330;SDS011;10824;51.632;4.950;2022-08-21T03:07:50;9.35;;;2.45;;
21330;SDS011;10824;51.632;4.950;2022-08-21T03:10:19;14.77;;;5.40;;
21330;SDS011;10824;51.632;4.950;2022-08-21T03:12:47;3.63;;;1.90;;
21330;SDS011;10824;51.632;4.950;2022-08-21T03:15:16;9.32;;;2.65;;
21330;SDS011;10824;51.632;4.950;2022-08-21T03:17:45;9.70;;;2.60;;
21330;SDS011;10824;51.632;4.950;2022-08-21T03:20:14;8.07;;;3.08;;
21330;SDS011;10824;51.632;4.950;2022-08-21T03:22:43;13.07;;;2.65;;
21330;SDS011;10824;51.632;4.950;2022-08-21T03:25:18;6.28;;;2.38;;
21330;SDS011;10824;51.632;4.950;2022-08-21T03:27:59;7.13;;;2.30;;
21330;SDS011;10824;51.632;4.950;2022-08-21T03:30:27;5.60;;;1.98;;
21330;SDS011;10824;51.632;4.950;2022-08-21T03:32:57;5.97;;;2.20;;
21330;SDS011;10824;51.632;4.950;2022-08-21T03:35:26;6.70;;;2.20;;
21330;SDS011;10824;51.632;4.950;2022-08-21T03:37:54;5.45;;;2.13;;
21330;SDS011;10824;51.632;4.950;2022-08-21T03:40:22;3.85;;;1.85;;
21330;SDS011;10824;51.632;4.950;2022-08-21T03:42:50;4.28;;;2.25;;
21330;SDS011;10824;51.632;4.950;2022-08-21T03:45:18;5.43;;;2.03;;
21330;SDS011;10824;51.632;4.950;2022-08-21T03:47:57;5.28;;;2.13;;
21330;SDS011;10824;51.632;4.950;2022-08-21T03:50:26;4.50;;;2.15;;
21330;SDS011;10824;51.632;4.950;2022-08-21T03:53:00;4.60;;;1.98;;
21330;SDS011;10824;51.632;4.950;2022-08-21T03:55:27;4.72;;;2.28;;
21330;SDS011;10824;51.632;4.950;2022-08-21T03:57:54;6.00;;;3.00;;
21330;SDS011;10824;51.632;4.950;2022-08-21T04:00:22;12.00;;;5.90;;
21330;SDS011;10824;51.632;4.950;2022-08-21T04:02:49;4.97;;;2.38;;
21330;SDS011;10824;51.632;4.950;2022-08-21T04:05:17;5.53;;;2.45;;
21330;SDS011;10824;51.632;4.950;2022-08-21T04:07:57;4.05;;;2.08;;
21330;SDS011;10824;51.632;4.950;2022-08-21T04:10:28;5.93;;;2.33;;
21330;SDS011;10824;51.632;4.950;2022-08-21T04:12:56;4.93;;;2.03;;
21330;SDS011;10824;51.632;4.950;2022-08-21T04:15:24;3.20;;;1.88;;
21330;SDS011;10824;51.632;4.950;2022-08-21T04:17:52;5.20;;;2.03;;
21330;SDS011;10824;51.632;4.950;2022-08-21T04:20:20;11.32;;;2.95;;
21330;SDS011;10824;51.632;4.950;2022-08-21T04:22:48;6.07;;;2.20;;
21330;SDS011;10824;51.632;4.950;2022-08-21T04:25:18;6.00;;;2.40;;
21330;SDS011;10824;51.632;4.950;2022-08-21T04:27:46;5.03;;;2.70;;
21330;SDS011;10824;51.632;4.950;2022-08-21T04:30:14;7.60;;;2.53;;
21330;SDS011;10824;51.632;4.950;2022-08-21T04:32:43;4.97;;;2.33;;
21330;SDS011;10824;51.632;4.950;2022-08-21T04:35:15;4.95;;;2.13;;
21330;SDS011;10824;51.632;4.950;2022-08-21T04:37:44;5.20;;;1.92;;
21330;SDS011;10824;51.632;4.950;2022-08-21T04:40:13;7.50;;;2.08;;
21330;SDS011;10824;51.632;4.950;2022-08-21T04:42:43;5.97;;;1.80;;
21330;SDS011;10824;51.632;4.950;2022-08-21T04:45:26;4.97;;;2.00;;
21330;SDS011;10824;51.632;4.950;2022-08-21T04:47:55;6.75;;;2.22;;
21330;SDS011;10824;51.632;4.950;2022-08-21T04:50:26;5.50;;;2.08;;
21330;SDS011;10824;51.632;4.950;2022-08-21T04:53:07;6.95;;;2.17;;
21330;SDS011;10824;51.632;4.950;2022-08-21T04:55:38;6.45;;;2.03;;
21330;SDS011;10824;51.632;4.950;2022-08-21T04:58:07;10.05;;;2.08;;
21330;SDS011;10824;51.632;4.950;2022-08-21T05:00:37;6.25;;;2.33;;
21330;SDS011;10824;51.632;4.950;2022-08-21T05:03:05;3.95;;;2.20;;
21330;SDS011;10824;51.632;4.950;2022-08-21T05:05:34;9.63;;;2.08;;
21330;SDS011;10824;51.632;4.950;2022-08-21T05:08:01;4.82;;;1.67;;
21330;SDS011;10824;51.632;4.950;2022-08-21T05:10:29;8.07;;;2.17;;
21330;SDS011;10824;51.632;4.950;2022-08-21T05:12:57;4.75;;;1.98;;
21330;SDS011;10824;51.632;4.950;2022-08-21T05:15:27;7.05;;;2.67;;
21330;SDS011;10824;51.632;4.950;2022-08-21T05:17:54;7.97;;;3.53;;
21330;SDS011;10824;51.632;4.950;2022-08-21T05:20:27;6.75;;;2.05;;
21330;SDS011;10824;51.632;4.950;2022-08-21T05:22:55;8.60;;;3.40;;
21330;SDS011;10824;51.632;4.950;2022-08-21T05:25:22;6.95;;;2.63;;
21330;SDS011;10824;51.632;4.950;2022-08-21T05:27:49;3.85;;;1.90;;
21330;SDS011;10824;51.632;4.950;2022-08-21T05:30:18;10.32;;;3.63;;
21330;SDS011;10824;51.632;4.950;2022-08-21T05:32:46;6.03;;;2.85;;
21330;SDS011;10824;51.632;4.950;2022-08-21T05:35:16;6.53;;;2.50;;
21330;SDS011;10824;51.632;4.950;2022-08-21T05:37:43;7.88;;;1.88;;
21330;SDS011;10824;51.632;4.950;2022-08-21T05:40:11;3.78;;;2.00;;
21330;SDS011;10824;51.632;4.950;2022-08-21T05:42:49;3.97;;;1.90;;
21330;SDS011;10824;51.632;4.950;2022-08-21T05:45:23;5.80;;;2.00;;
21330;SDS011;10824;51.632;4.950;2022-08-21T05:50:41;5.45;;;2.10;;
21330;SDS011;10824;51.632;4.950;2022-08-21T05:53:09;8.32;;;2.20;;
21330;SDS011;10824;51.632;4.950;2022-08-21T05:55:37;4.80;;;1.88;;
21330;SDS011;10824;51.632;4.950;2022-08-21T05:58:14;5.65;;;1.98;;
21330;SDS011;10824;51.632;4.950;2022-08-21T06:00:42;4.60;;;1.55;;
21330;SDS011;10824;51.632;4.950;2022-08-21T06:03:14;2.83;;;1.50;;
21330;SDS011;10824;51.632;4.950;2022-08-21T06:05:45;4.22;;;1.20;;
21330;SDS011;10824;51.632;4.950;2022-08-21T06:08:14;5.35;;;1.80;;
21330;SDS011;10824;51.632;4.950;2022-08-21T06:10:42;6.82;;;2.28;;
21330;SDS011;10824;51.632;4.950;2022-08-21T06:13:10;7.90;;;1.83;;
21330;SDS011;10824;51.632;4.950;2022-08-21T06:15:38;5.05;;;1.83;;
21330;SDS011;10824;51.632;4.950;2022-08-21T06:18:05;12.02;;;4.03;;
21330;SDS011;10824;51.632;4.950;2022-08-21T06:20:33;5.22;;;1.98;;
21330;SDS011;10824;51.632;4.950;2022-08-21T06:23:01;8.65;;;1.90;;
21330;SDS011;10824;51.632;4.950;2022-08-21T06:25:31;6.35;;;2.00;;
21330;SDS011;10824;51.632;4.950;2022-08-21T06:28:06;7.57;;;1.70;;
21330;SDS011;10824;51.632;4.950;2022-08-21T06:30:35;10.48;;;2.75;;
21330;SDS011;10824;51.632;4.950;2022-08-21T06:33:04;4.63;;;2.28;;
21330;SDS011;10824;51.632;4.950;2022-08-21T06:35:32;4.13;;;1.85;;
21330;SDS011;10824;51.632;4.950;2022-08-21T06:38:00;10.35;;;3.55;;
21330;SDS011;10824;51.632;4.950;2022-08-21T06:40:28;6.70;;;2.35;;
21330;SDS011;10824;51.632;4.950;2022-08-21T06:43:07;7.28;;;2.65;;
21330;SDS011;10824;51.632;4.950;2022-08-21T06:45:40;6.40;;;2.08;;
21330;SDS011;10824;51.632;4.950;2022-08-21T06:48:07;6.65;;;2.53;;
21330;SDS011;10824;51.632;4.950;2022-08-21T06:50:35;4.32;;;1.70;;
21330;SDS011;10824;51.632;4.950;2022-08-21T06:53:03;4.65;;;1.73;;
21330;SDS011;10824;51.632;4.950;2022-08-21T06:55:33;3.80;;;1.60;;
21330;SDS011;10824;51.632;4.950;2022-08-21T06:58:00;4.85;;;1.88;;
21330;SDS011;10824;51.632;4.950;2022-08-21T07:00:28;4.55;;;1.90;;
21330;SDS011;10824;51.632;4.950;2022-08-21T07:02:56;9.57;;;1.98;;
21330;SDS011;10824;51.632;4.950;2022-08-21T07:05:25;7.93;;;2.70;;
21330;SDS011;10824;51.632;4.950;2022-08-21T07:07:53;9.60;;;3.05;;
21330;SDS011;10824;51.632;4.950;2022-08-21T07:10:20;9.20;;;2.95;;
21330;SDS011;10824;51.632;4.950;2022-08-21T07:12:52;3.67;;;1.67;;
21330;SDS011;10824;51.632;4.950;2022-08-21T07:15:27;7.97;;;1.80;;
21330;SDS011;10824;51.632;4.950;2022-08-21T07:17:58;9.67;;;2.60;;
21330;SDS011;10824;51.632;4.950;2022-08-21T07:20:27;6.50;;;2.17;;
21330;SDS011;10824;51.632;4.950;2022-08-21T07:22:55;6.35;;;2.00;;
21330;SDS011;10824;51.632;4.950;2022-08-21T07:25:28;7.00;;;2.20;;
21330;SDS011;10824;51.632;4.950;2022-08-21T07:27:56;13.40;;;2.70;;
21330;SDS011;10824;51.632;4.950;2022-08-21T07:30:23;4.53;;;1.73;;
21330;SDS011;10824;51.632;4.950;2022-08-21T07:32:52;5.25;;;2.17;;
21330;SDS011;10824;51.632;4.950;2022-08-21T07:35:23;6.38;;;1.90;;
21330;SDS011;10824;51.632;4.950;2022-08-21T07:37:51;5.18;;;1.80;;
21330;SDS011;10824;51.632;4.950;2022-08-21T07:40:19;4.22;;;1.55;;
21330;SDS011;10824;51.632;4.950;2022-08-21T07:42:47;11.60;;;2.53;;
21330;SDS011;10824;51.632;4.950;2022-08-21T07:45:20;6.10;;;1.95;;
21330;SDS011;10824;51.632;4.950;2022-08-21T07:47:50;4.43;;;1.88;;
21330;SDS011;10824;51.632;4.950;2022-08-21T07:50:23;4.30;;;1.77;;
21330;SDS011;10824;51.632;4.950;2022-08-21T07:52:51;5.05;;;1.95;;
21330;SDS011;10824;51.632;4.950;2022-08-21T07:55:19;12.55;;;2.53;;
21330;SDS011;10824;51.632;4.950;2022-08-21T07:57:48;5.43;;;1.60;;
21330;SDS011;10824;51.632;4.950;2022-08-21T08:00:17;5.30;;;2.47;;
21330;SDS011;10824;51.632;4.950;2022-08-21T08:02:47;12.10;;;2.15;;
21330;SDS011;10824;51.632;4.950;2022-08-21T08:07:47;6.93;;;1.90;;
21330;SDS011;10824;51.632;4.950;2022-08-21T08:10:15;7.18;;;1.50;;
21330;SDS011;10824;51.632;4.950;2022-08-21T08:12:43;8.50;;;3.42;;
21330;SDS011;10824;51.632;4.950;2022-08-21T08:15:12;4.72;;;1.75;;
21330;SDS011;10824;51.632;4.950;2022-08-21T08:17:45;3.47;;;1.42;;
21330;SDS011;10824;51.632;4.950;2022-08-21T08:20:13;5.03;;;1.80;;
21330;SDS011;10824;51.632;4.950;2022-08-21T08:22:41;7.93;;;1.98;;
21330;SDS011;10824;51.632;4.950;2022-08-21T08:25:15;8.25;;;2.20;;
21330;SDS011;10824;51.632;4.950;2022-08-21T08:27:43;5.20;;;1.92;;
21330;SDS011;10824;51.632;4.950;2022-08-21T08:30:11;13.85;;;2.03;;
21330;SDS011;10824;51.632;4.950;2022-08-21T08:32:39;3.97;;;1.38;;
21330;SDS011;10824;51.632;4.950;2022-08-21T08:35:07;4.28;;;1.42;;
21330;SDS011;10824;51.632;4.950;2022-08-21T08:37:35;6.65;;;1.58;;
21330;SDS011;10824;51.632;4.950;2022-08-21T08:40:11;5.85;;;1.77;;
21330;SDS011;10824;51.632;4.950;2022-08-21T08:42:41;9.32;;;1.60;;
21330;SDS011;10824;51.632;4.950;2022-08-21T08:45:11;3.97;;;1.42;;
21330;SDS011;10824;51.632;4.950;2022-08-21T08:47:45;4.95;;;1.90;;
21330;SDS011;10824;51.632;4.950;2022-08-21T08:50:17;5.43;;;1.00;;
21330;SDS011;10824;51.632;4.950;2022-08-21T08:52:56;5.45;;;2.15;;
21330;SDS011;10824;51.632;4.950;2022-08-21T08:55:36;2.33;;;0.93;;
21330;SDS011;10824;51.632;4.950;2022-08-21T08:58:12;8.15;;;1.73;;
21330;SDS011;10824;51.632;4.950;2022-08-21T09:00:47;4.25;;;1.98;;
21330;SDS011;10824;51.632;4.950;2022-08-21T09:03:17;3.27;;;2.10;;
21330;SDS011;10824;51.632;4.950;2022-08-21T09:05:46;4.45;;;1.00;;
21330;SDS011;10824;51.632;4.950;2022-08-21T09:11:20;4.68;;;0.98;;
21330;SDS011;10824;51.632;4.950;2022-08-21T09:25:18;6.20;;;1.50;;
21330;SDS011;10824;51.632;4.950;2022-08-21T09:27:49;3.45;;;1.10;;
21330;SDS011;10824;51.632;4.950;2022-08-21T09:30:17;3.72;;;0.95;;
21330;SDS011;10824;51.632;4.950;2022-08-21T09:32:45;1.95;;;0.80;;
21330;SDS011;10824;51.632;4.950;2022-08-21T09:35:20;3.45;;;1.02;;
21330;SDS011;10824;51.632;4.950;2022-08-21T09:37:53;2.30;;;0.90;;
21330;SDS011;10824;51.632;4.950;2022-08-21T09:43:19;3.60;;;1.10;;
21330;SDS011;10824;51.632;4.950;2022-08-21T09:45:49;5.55;;;1.25;;
21330;SDS011;10824;51.632;4.950;2022-08-21T09:48:28;4.10;;;1.00;;
21330;SDS011;10824;51.632;4.950;2022-08-21T09:51:05;9.32;;;2.13;;
21330;SDS011;10824;51.632;4.950;2022-08-21T09:53:37;6.63;;;1.50;;
21330;SDS011;10824;51.632;4.950;2022-08-21T09:56:20;6.90;;;1.00;;
21330;SDS011;10824;51.632;4.950;2022-08-21T09:59:15;3.72;;;1.92;;
21330;SDS011;10824;51.632;4.950;2022-08-21T10:01:48;4.07;;;1.45;;
21330;SDS011;10824;51.632;4.950;2022-08-21T10:04:37;3.30;;;0.60;;
21330;SDS011;10824;51.632;4.950;2022-08-21T10:07:07;2.55;;;0.95;;
21330;SDS011;10824;51.632;4.950;2022-08-21T10:09:45;4.88;;;1.15;;
21330;SDS011;10824;51.632;4.950;2022-08-21T10:12:17;4.07;;;1.10;;
21330;SDS011;10824;51.632;4.950;2022-08-21T10:20:44;2.97;;;0.80;;
21330;SDS011;10824;51.632;4.950;2022-08-21T10:26:17;2.90;;;0.70;;
21330;SDS011;10824;51.632;4.950;2022-08-21T10:29:11;2.97;;;0.75;;
21330;SDS011;10824;51.632;4.950;2022-08-21T10:43:42;3.75;;;1.05;;
21330;SDS011;10824;51.632;4.950;2022-08-21T10:46:46;5.13;;;1.17;;
21330;SDS011;10824;51.632;4.950;2022-08-21T10:49:43;3.20;;;1.00;;
21330;SDS011;10824;51.632;4.950;2022-08-21T10:55:16;2.47;;;0.82;;
21330;SDS011;10824;51.632;4.950;2022-08-21T11:00:30;4.53;;;1.58;;
21330;SDS011;10824;51.632;4.950;2022-08-21T11:05:55;1.63;;;0.60;;
21330;SDS011;10824;51.632;4.950;2022-08-21T11:08:38;5.90;;;0.80;;
21330;SDS011;10824;51.632;4.950;2022-08-21T11:11:26;1.48;;;0.65;;
21330;SDS011;10824;51.632;4.950;2022-08-21T11:17:16;1.35;;;0.52;;
21330;SDS011;10824;51.632;4.950;2022-08-21T11:20:07;3.70;;;0.82;;
21330;SDS011;10824;51.632;4.950;2022-08-21T11:22:49;4.22;;;1.42;;
21330;SDS011;10824;51.632;4.950;2022-08-21T11:25:39;3.95;;;1.10;;
21330;SDS011;10824;51.632;4.950;2022-08-21T11:34:24;3.40;;;0.70;;
21330;SDS011;10824;51.632;4.950;2022-08-21T11:46:00;6.07;;;0.82;;
21330;SDS011;10824;51.632;4.950;2022-08-21T11:51:27;3.25;;;0.70;;
21330;SDS011;10824;51.632;4.950;2022-08-21T11:57:20;3.40;;;1.10;;
21330;SDS011;10824;51.632;4.950;2022-08-21T12:02:38;5.22;;;1.02;;
21330;SDS011;10824;51.632;4.950;2022-08-21T12:05:11;3.33;;;0.80;;
21330;SDS011;10824;51.632;4.950;2022-08-21T12:07:58;1.67;;;0.63;;
21330;SDS011;10824;51.632;4.950;2022-08-21T12:10:38;3.05;;;1.10;;
21330;SDS011;10824;51.632;4.950;2022-08-21T12:13:20;32.25;;;2.92;;
21330;SDS011;10824;51.632;4.950;2022-08-21T12:16:15;4.38;;;1.42;;
21330;SDS011;10824;51.632;4.950;2022-08-21T12:19:03;1.00;;;0.55;;
21330;SDS011;10824;51.632;4.950;2022-08-21T12:21:48;1.85;;;0.60;;
21330;SDS011;10824;51.632;4.950;2022-08-21T12:24:48;4.20;;;0.75;;
21330;SDS011;10824;51.632;4.950;2022-08-21T12:30:03;2.63;;;0.75;;
21330;SDS011;10824;51.632;4.950;2022-08-21T12:32:55;2.75;;;0.73;;
21330;SDS011;10824;51.632;4.950;2022-08-21T12:35:27;3.15;;;1.27;;
21330;SDS011;10824;51.632;4.950;2022-08-21T12:38:23;3.97;;;0.90;;
21330;SDS011;10824;51.632;4.950;2022-08-21T12:41:03;2.35;;;0.95;;
21330;SDS011;10824;51.632;4.950;2022-08-21T12:43:43;2.28;;;0.77;;
21330;SDS011;10824;51.632;4.950;2022-08-21T12:46:19;6.20;;;1.15;;
21330;SDS011;10824;51.632;4.950;2022-08-21T12:48:52;3.10;;;0.73;;
21330;SDS011;10824;51.632;4.950;2022-08-21T12:51:50;9.65;;;1.30;;
21330;SDS011;10824;51.632;4.950;2022-08-21T12:54:28;5.85;;;1.13;;
21330;SDS011;10824;51.632;4.950;2022-08-21T12:57:01;6.30;;;0.95;;
21330;SDS011;10824;51.632;4.950;2022-08-21T12:59:30;2.53;;;0.70;;
21330;SDS011;10824;51.632;4.950;2022-08-21T13:02:00;2.35;;;0.60;;
21330;SDS011;10824;51.632;4.950;2022-08-21T13:04:35;6.13;;;1.25;;
21330;SDS011;10824;51.632;4.950;2022-08-21T13:07:10;3.95;;;0.90;;
21330;SDS011;10824;51.632;4.950;2022-08-21T13:12:22;4.80;;;0.90;;
21330;SDS011;10824;51.632;4.950;2022-08-21T13:14:58;2.25;;;0.88;;
21330;SDS011;10824;51.632;4.950;2022-08-21T13:17:36;4.90;;;1.38;;
21330;SDS011;10824;51.632;4.950;2022-08-21T13:20:28;2.63;;;0.88;;
21330;SDS011;10824;51.632;4.950;2022-08-21T13:25:51;5.30;;;0.88;;
21330;SDS011;10824;51.632;4.950;2022-08-21T13:28:19;3.75;;;1.00;;
21330;SDS011;10824;51.632;4.950;2022-08-21T13:30:48;3.78;;;0.98;;
21330;SDS011;10824;51.632;4.950;2022-08-21T13:33:23;3.47;;;0.80;;
21330;SDS011;10824;51.632;4.950;2022-08-21T13:36:04;1.42;;;0.70;;
21330;SDS011;10824;51.632;4.950;2022-08-21T13:38:45;1.63;;;0.88;;
21330;SDS011;10824;51.632;4.950;2022-08-21T13:43:57;3.75;;;1.50;;
21330;SDS011;10824;51.632;4.950;2022-08-21T13:46:29;3.97;;;1.30;;
21330;SDS011;10824;51.632;4.950;2022-08-21T13:49:02;2.17;;;0.80;;
21330;SDS011;10824;51.632;4.950;2022-08-21T13:51:34;4.68;;;0.82;;
21330;SDS011;10824;51.632;4.950;2022-08-21T13:54:26;3.50;;;1.20;;
21330;SDS011;10824;51.632;4.950;2022-08-21T13:57:17;5.20;;;1.13;;
21330;SDS011;10824;51.632;4.950;2022-08-21T14:00:13;3.63;;;0.77;;
21330;SDS011;10824;51.632;4.950;2022-08-21T14:02:49;2.58;;;0.60;;
21330;SDS011;10824;51.632;4.950;2022-08-21T14:08:46;2.28;;;0.55;;
21330;SDS011;10824;51.632;4.950;2022-08-21T14:11:20;2.67;;;0.88;;
21330;SDS011;10824;51.632;4.950;2022-08-21T14:19:23;2.15;;;0.98;;
21330;SDS011;10824;51.632;4.950;2022-08-21T14:22:01;5.22;;;0.88;;
21330;SDS011;10824;51.632;4.950;2022-08-21T14:24:48;2.75;;;0.75;;
21330;SDS011;10824;51.632;4.950;2022-08-21T14:27:20;3.30;;;1.00;;
21330;SDS011;10824;51.632;4.950;2022-08-21T14:29:57;3.13;;;1.02;;
21330;SDS011;10824;51.632;4.950;2022-08-21T14:32:36;3.65;;;1.20;;
21330;SDS011;10824;51.632;4.950;2022-08-21T14:35:11;3.60;;;0.88;;
21330;SDS011;10824;51.632;4.950;2022-08-21T14:37:45;2.47;;;0.80;;
21330;SDS011;10824;51.632;4.950;2022-08-21T14:40:21;4.60;;;1.27;;
21330;SDS011;10824;51.632;4.950;2022-08-21T14:42:50;4.15;;;0.68;;
21330;SDS011;10824;51.632;4.950;2022-08-21T14:45:28;3.17;;;0.70;;
21330;SDS011;10824;51.632;4.950;2022-08-21T14:47:57;4.03;;;0.90;;
21330;SDS011;10824;51.632;4.950;2022-08-21T14:50:25;2.75;;;1.52;;
21330;SDS011;10824;51.632;4.950;2022-08-21T14:52:53;2.85;;;0.80;;
21330;SDS011;10824;51.632;4.950;2022-08-21T14:55:21;1.25;;;0.60;;
21330;SDS011;10824;51.632;4.950;2022-08-21T14:57:50;2.47;;;0.60;;
21330;SDS011;10824;51.632;4.950;2022-08-21T15:00:21;2.50;;;0.73;;
21330;SDS011;10824;51.632;4.950;2022-08-21T15:03:01;2.00;;;0.70;;
21330;SDS011;10824;51.632;4.950;2022-08-21T15:05:31;4.35;;;1.42;;
21330;SDS011;10824;51.632;4.950;2022-08-21T15:07:59;2.08;;;0.95;;
21330;SDS011;10824;51.632;4.950;2022-08-21T15:10:36;1.77;;;0.70;;
21330;SDS011;10824;51.632;4.950;2022-08-21T15:13:23;5.15;;;0.75;;
21330;SDS011;10824;51.632;4.950;2022-08-21T15:15:56;2.83;;;0.73;;
21330;SDS011;10824;51.632;4.950;2022-08-21T15:18:28;4.35;;;1.58;;
21330;SDS011;10824;51.632;4.950;2022-08-21T15:21:00;4.10;;;1.02;;
21330;SDS011;10824;51.632;4.950;2022-08-21T15:23:31;3.22;;;0.95;;
21330;SDS011;10824;51.632;4.950;2022-08-21T15:26:01;1.90;;;0.82;;
21330;SDS011;10824;51.632;4.950;2022-08-21T15:28:29;2.42;;;0.95;;
21330;SDS011;10824;51.632;4.950;2022-08-21T15:30:59;2.40;;;0.80;;
21330;SDS011;10824;51.632;4.950;2022-08-21T15:33:31;2.30;;;0.70;;
21330;SDS011;10824;51.632;4.950;2022-08-21T15:36:01;3.88;;;0.80;;
21330;SDS011;10824;51.632;4.950;2022-08-21T15:38:29;2.65;;;0.90;;
21330;SDS011;10824;51.632;4.950;2022-08-21T15:40:57;6.50;;;1.10;;
21330;SDS011;10824;51.632;4.950;2022-08-21T15:43:26;3.38;;;1.10;;
21330;SDS011;10824;51.632;4.950;2022-08-21T15:45:57;4.18;;;1.10;;
21330;SDS011;10824;51.632;4.950;2022-08-21T15:48:27;3.00;;;0.80;;
21330;SDS011;10824;51.632;4.950;2022-08-21T15:50:54;5.57;;;1.23;;
21330;SDS011;10824;51.632;4.950;2022-08-21T15:53:22;2.53;;;1.00;;
21330;SDS011;10824;51.632;4.950;2022-08-21T15:55:50;2.60;;;0.75;;
21330;SDS011;10824;51.632;4.950;2022-08-21T15:58:17;2.30;;;1.02;;
21330;SDS011;10824;51.632;4.950;2022-08-21T16:00:47;2.70;;;0.90;;
21330;SDS011;10824;51.632;4.950;2022-08-21T16:03:17;4.88;;;0.82;;
21330;SDS011;10824;51.632;4.950;2022-08-21T16:05:49;5.13;;;0.82;;
21330;SDS011;10824;51.632;4.950;2022-08-21T16:08:19;5.93;;;1.05;;
21330;SDS011;10824;51.632;4.950;2022-08-21T16:10:50;2.95;;;0.90;;
21330;SDS011;10824;51.632;4.950;2022-08-21T16:13:24;3.70;;;1.33;;
21330;SDS011;10824;51.632;4.950;2022-08-21T16:15:55;6.93;;;2.13;;
21330;SDS011;10824;51.632;4.950;2022-08-21T16:18:22;8.63;;;2.65;;
21330;SDS011;10824;51.632;4.950;2022-08-21T16:20:50;3.15;;;1.20;;
21330;SDS011;10824;51.632;4.950;2022-08-21T16:23:18;4.85;;;0.82;;
21330;SDS011;10824;51.632;4.950;2022-08-21T16:25:45;2.92;;;1.33;;
21330;SDS011;10824;51.632;4.950;2022-08-21T16:28:15;3.20;;;1.20;;
21330;SDS011;10824;51.632;4.950;2022-08-21T16:30:45;6.65;;;2.10;;
21330;SDS011;10824;51.632;4.950;2022-08-21T16:33:33;9.02;;;1.95;;
21330;SDS011;10824;51.632;4.950;2022-08-21T16:38:34;5.53;;;1.27;;
21330;SDS011;10824;51.632;4.950;2022-08-21T16:41:04;3.05;;;1.17;;
21330;SDS011;10824;51.632;4.950;2022-08-21T16:46:04;22.27;;;12.52;;
21330;SDS011;10824;51.632;4.950;2022-08-21T16:48:33;79.85;;;44.13;;
21330;SDS011;10824;51.632;4.950;2022-08-21T16:51:03;52.70;;;25.90;;
21330;SDS011;10824;51.632;4.950;2022-08-21T16:53:30;68.30;;;31.75;;
21330;SDS011;10824;51.632;4.950;2022-08-21T16:55:57;24.67;;;11.50;;
21330;SDS011;10824;51.632;4.950;2022-08-21T16:58:26;71.55;;;35.33;;
21330;SDS011;10824;51.632;4.950;2022-08-21T17:03:27;58.17;;;30.10;;